createdAt,value
2023-05-08T00:01:16.341Z,0.83
2023-05-08T00:03:45.698Z,0.91
2023-05-08T00:06:17.976Z,1.02
2023-05-08T00:08:45.924Z,1.08
2023-05-08T00:11:13.863Z,1.12
2023-05-08T00:13:42.403Z,1.14
2023-05-08T00:16:12.910Z,0.95
2023-05-08T00:18:41.215Z,0.88
2023-05-08T00:21:10.954Z,0.96
2023-05-08T00:23:38.845Z,0.76
2023-05-08T00:26:07.049Z,0.63
2023-05-08T00:28:35.218Z,0.58
2023-05-08T00:31:03.235Z,0.42
2023-05-08T00:33:31.276Z,0.45
2023-05-08T00:36:02.857Z,0.30
2023-05-08T00:38:35.866Z,0.37
2023-05-08T00:41:04.624Z,0.34
2023-05-08T00:43:33.642Z,0.16
2023-05-08T00:46:02.851Z,0.01
2023-05-08T00:48:33.939Z,0.12
2023-05-08T00:51:03.956Z,-0.10
2023-05-08T00:53:35.981Z,-0.11
2023-05-08T00:56:04.685Z,-0.10
2023-05-08T00:58:34.255Z,-0.42
2023-05-08T01:01:02.521Z,-0.30
2023-05-08T01:03:31.284Z,-0.22
2023-05-08T01:05:59.342Z,-0.65
2023-05-08T01:08:27.374Z,-0.67
2023-05-08T01:11:07.811Z,-0.46
2023-05-08T01:13:42.009Z,-0.28
2023-05-08T01:16:16.631Z,-0.43
2023-05-08T01:18:50.056Z,-0.55
2023-05-08T01:21:27.182Z,-0.50
2023-05-08T01:24:24.946Z,-0.62
2023-05-08T01:27:15.884Z,-0.52
2023-05-08T01:30:25.389Z,-0.57
2023-05-08T01:32:59.411Z,-0.84
2023-05-08T01:35:34.109Z,-0.74
2023-05-08T01:38:10.797Z,-0.72
2023-05-08T01:40:53.871Z,-0.73
2023-05-08T01:43:31.345Z,-0.75
2023-05-08T01:46:04.037Z,-0.80
2023-05-08T01:48:36.769Z,-0.81
2023-05-08T01:51:09.919Z,-0.81
2023-05-08T01:53:42.386Z,-0.82
2023-05-08T01:56:13.339Z,-0.81
2023-05-08T01:58:43.888Z,-0.99
2023-05-08T02:01:13.585Z,-1.01
2023-05-08T02:03:44.044Z,-1.06
2023-05-08T02:06:16.883Z,-1.17
2023-05-08T02:08:45.740Z,-1.18
2023-05-08T02:11:15.639Z,-0.87
2023-05-08T02:13:45.775Z,-1.28
2023-05-08T02:16:15.440Z,-1.18
2023-05-08T02:18:49.583Z,-1.19
2023-05-08T02:21:18.892Z,-1.27
2023-05-08T02:23:48.037Z,-1.40
2023-05-08T02:26:17.572Z,-1.27
2023-05-08T02:28:46.762Z,-1.39
2023-05-08T02:31:15.439Z,-1.55
2023-05-08T02:33:46.115Z,-1.19
2023-05-08T02:36:19.016Z,-1.06
2023-05-08T02:38:51.862Z,-1.19
2023-05-08T02:41:22.842Z,-1.30
2023-05-08T02:43:52.105Z,-1.36
2023-05-08T02:46:27.592Z,-1.40
2023-05-08T02:49:01.438Z,-1.22
2023-05-08T02:51:34.888Z,-1.37
2023-05-08T02:54:11.483Z,-1.38
2023-05-08T02:56:48.329Z,-1.36
2023-05-08T02:59:21.557Z,-1.29
2023-05-08T03:01:55.262Z,-1.27
2023-05-08T03:04:32.337Z,-1.41
2023-05-08T03:07:01.561Z,-1.46
2023-05-08T03:09:35.512Z,-1.43
2023-05-08T03:12:11.195Z,-1.41
2023-05-08T03:14:47.877Z,-1.40
2023-05-08T03:17:19.150Z,-1.39
2023-05-08T03:19:53.656Z,-1.12
2023-05-08T03:22:24.144Z,-1.24
2023-05-08T03:24:54.962Z,-0.92
2023-05-08T03:27:23.656Z,-0.89
2023-05-08T03:29:53.497Z,-0.95
2023-05-08T03:32:23.382Z,-0.88
2023-05-08T03:34:54.354Z,-0.93
2023-05-08T03:37:22.892Z,-0.65
2023-05-08T03:39:52.577Z,-0.68
2023-05-08T03:42:22.388Z,-0.55
2023-05-08T03:44:51.939Z,-0.45
2023-05-08T03:47:20.953Z,-0.29
2023-05-08T03:49:50.697Z,-0.39
2023-05-08T03:52:20.107Z,-0.07
2023-05-08T03:54:48.072Z,0.23
2023-05-08T03:57:16.287Z,0.29
2023-05-08T03:59:53.342Z,0.33
2023-05-08T04:02:28.693Z,0.44
2023-05-08T04:05:07.059Z,0.86
2023-05-08T04:07:44.089Z,0.94
2023-05-08T04:10:18.752Z,1.20
2023-05-08T04:12:55.898Z,1.23
2023-05-08T04:15:28.122Z,1.26
2023-05-08T04:18:00.578Z,1.47
2023-05-08T04:20:31.678Z,1.67
2023-05-08T04:23:01.988Z,2.12
2023-05-08T04:25:31.795Z,2.26
2023-05-08T04:28:00.200Z,2.45
2023-05-08T04:30:28.696Z,2.57
2023-05-08T04:32:58.077Z,3.07
2023-05-08T04:35:26.117Z,3.50
2023-05-08T04:37:54.250Z,3.46
2023-05-08T04:40:23.983Z,3.68
2023-05-08T04:42:52.056Z,4.03
2023-05-08T04:45:20.301Z,4.41
2023-05-08T04:47:48.410Z,4.61
2023-05-08T04:50:16.413Z,4.53
2023-05-08T04:52:44.544Z,4.87
2023-05-08T04:55:12.679Z,5.05
2023-05-08T04:57:42.281Z,5.26
2023-05-08T05:00:11.568Z,5.42
2023-05-08T05:02:39.568Z,5.26
2023-05-08T05:05:08.618Z,5.86
2023-05-08T05:07:36.868Z,6.07
2023-05-08T05:10:05.378Z,6.51
2023-05-08T05:12:33.399Z,7.44
2023-05-08T05:15:02.804Z,8.43
2023-05-08T05:17:31.960Z,8.99
2023-05-08T05:19:59.906Z,9.58
2023-05-08T05:22:30.864Z,9.87
2023-05-08T05:24:58.946Z,9.69
2023-05-08T05:27:26.811Z,10.10
2023-05-08T05:29:54.822Z,9.90
2023-05-08T05:32:24.423Z,10.05
2023-05-08T05:34:52.817Z,9.38
2023-05-08T05:37:20.819Z,9.03
2023-05-08T05:39:48.812Z,8.85
2023-05-08T05:42:16.981Z,8.70
2023-05-08T05:44:45.063Z,8.83
2023-05-08T05:47:13.178Z,8.99
2023-05-08T05:49:46.981Z,8.91
2023-05-08T05:52:15.078Z,8.82
2023-05-08T05:54:43.019Z,9.01
2023-05-08T05:57:11.160Z,9.03
2023-05-08T05:59:39.236Z,9.19
2023-05-08T06:02:08.036Z,9.28
2023-05-08T06:04:36.240Z,9.42
2023-05-08T06:07:05.753Z,9.64
2023-05-08T06:09:33.765Z,9.45
2023-05-08T06:12:02.039Z,9.32
2023-05-08T06:14:29.936Z,9.47
2023-05-08T06:16:57.865Z,9.56
2023-05-08T06:19:26.320Z,9.67
2023-05-08T06:21:54.185Z,10.14
2023-05-08T06:24:23.898Z,10.25
2023-05-08T06:26:52.142Z,10.53
2023-05-08T06:29:20.199Z,10.35
2023-05-08T06:31:48.283Z,10.34
2023-05-08T06:34:16.365Z,10.31
2023-05-08T06:36:44.475Z,10.37
2023-05-08T06:39:15.225Z,10.89
2023-05-08T06:41:45.246Z,10.88
2023-05-08T06:44:13.211Z,11.03
2023-05-08T06:46:41.283Z,11.31
2023-05-08T06:49:09.492Z,11.24
2023-05-08T06:51:38.465Z,10.94
2023-05-08T06:54:08.304Z,10.74
2023-05-08T06:56:36.519Z,11.06
2023-05-08T06:59:08.898Z,11.10
2023-05-08T07:01:37.979Z,11.59
2023-05-08T07:04:06.706Z,11.82
2023-05-08T07:06:34.797Z,11.79
2023-05-08T07:09:05.344Z,11.55
2023-05-08T07:11:33.356Z,11.79
2023-05-08T07:14:01.301Z,11.69
2023-05-08T07:16:32.082Z,11.60
2023-05-08T07:19:00.264Z,11.92
2023-05-08T07:21:29.430Z,11.93
2023-05-08T07:23:57.748Z,12.29
2023-05-08T07:26:25.872Z,12.46
2023-05-08T07:28:54.995Z,12.56
2023-05-08T07:31:23.179Z,12.92
2023-05-08T07:33:52.457Z,13.12
2023-05-08T07:36:20.616Z,13.14
2023-05-08T07:38:48.608Z,13.00
2023-05-08T07:41:16.651Z,12.88
2023-05-08T07:43:45.347Z,13.14
2023-05-08T07:46:18.913Z,13.38
2023-05-08T07:48:46.991Z,13.11
2023-05-08T07:51:17.008Z,13.52
2023-05-08T07:53:45.126Z,13.44
2023-05-08T07:56:13.068Z,13.51
2023-05-08T07:58:42.717Z,13.92
2023-05-08T08:01:10.738Z,14.06
2023-05-08T08:03:38.733Z,14.25
2023-05-08T08:06:07.055Z,14.15
2023-05-08T08:08:36.492Z,13.99
2023-05-08T08:11:04.442Z,14.06
2023-05-08T08:13:32.812Z,14.57
2023-05-08T08:16:01.019Z,14.41
2023-05-08T08:18:28.984Z,14.64
2023-05-08T08:20:56.973Z,14.38
2023-05-08T08:23:24.959Z,14.65
2023-05-08T08:25:54.286Z,14.63
2023-05-08T08:28:22.723Z,15.00
2023-05-08T08:30:51.219Z,15.45
2023-05-08T08:33:19.354Z,15.28
2023-05-08T08:35:48.010Z,15.25
2023-05-08T08:38:16.959Z,15.53
2023-05-08T08:40:44.903Z,15.77
2023-05-08T08:43:14.306Z,15.69
2023-05-08T08:45:42.266Z,15.69
2023-05-08T08:48:12.631Z,15.60
2023-05-08T08:50:43.155Z,15.92
2023-05-08T08:53:17.184Z,15.69
2023-05-08T08:55:49.734Z,15.45
2023-05-08T08:58:26.681Z,15.46
2023-05-08T09:00:56.493Z,15.56
2023-05-08T09:03:24.592Z,15.53
2023-05-08T09:05:52.922Z,15.63
2023-05-08T09:08:21.002Z,16.09
2023-05-08T09:10:49.074Z,16.45
2023-05-08T09:13:20.006Z,16.00
2023-05-08T09:15:50.683Z,15.30
2023-05-08T09:18:19.382Z,15.80
2023-05-08T09:20:48.243Z,16.44
2023-05-08T09:23:17.534Z,16.62
2023-05-08T09:25:46.359Z,16.82
2023-05-08T09:28:18.664Z,16.66
2023-05-08T09:30:57.137Z,16.82
2023-05-08T09:33:28.230Z,17.31
2023-05-08T09:35:57.044Z,16.99
2023-05-08T09:38:38.786Z,16.93
2023-05-08T09:41:11.167Z,17.01
2023-05-08T09:43:39.676Z,17.39
2023-05-08T09:46:26.371Z,17.14
2023-05-08T09:48:55.959Z,16.54
2023-05-08T09:51:25.032Z,16.88
2023-05-08T09:53:54.156Z,17.49
2023-05-08T09:56:35.735Z,17.69
2023-05-08T09:59:06.404Z,17.34
2023-05-08T10:01:37.576Z,17.06
2023-05-08T10:04:06.463Z,16.89
2023-05-08T10:06:36.492Z,17.51
2023-05-08T10:09:13.380Z,16.67
2023-05-08T10:11:42.206Z,16.53
2023-05-08T10:14:10.575Z,17.23
2023-05-08T10:16:43.522Z,17.28
2023-05-08T10:19:15.601Z,17.02
2023-05-08T10:21:47.145Z,17.44
2023-05-08T10:24:17.689Z,17.08
2023-05-08T10:27:05.641Z,17.04
2023-05-08T10:29:43.019Z,17.53
2023-05-08T10:32:14.424Z,17.68
2023-05-08T10:34:44.926Z,17.48
2023-05-08T10:37:13.901Z,17.41
2023-05-08T10:39:44.301Z,17.76
2023-05-08T10:42:14.023Z,18.16
2023-05-08T10:44:42.160Z,18.10
2023-05-08T10:47:19.040Z,18.28
2023-05-08T10:49:56.589Z,18.55
2023-05-08T10:52:33.594Z,18.71
2023-05-08T10:55:20.945Z,18.69
2023-05-08T10:58:10.299Z,18.52
2023-05-08T11:01:16.280Z,18.46
2023-05-08T11:03:51.738Z,17.86
2023-05-08T11:06:46.821Z,17.15
2023-05-08T11:09:23.234Z,17.67
2023-05-08T11:12:10.179Z,17.23
2023-05-08T11:14:42.354Z,17.62
2023-05-08T11:17:12.059Z,18.22
2023-05-08T11:19:56.706Z,18.77
2023-05-08T11:22:27.205Z,18.05
2023-05-08T11:24:57.870Z,18.35
2023-05-08T11:28:04.286Z,18.31
2023-05-08T11:30:40.154Z,18.82
2023-05-08T11:33:15.627Z,18.68
2023-05-08T11:35:53.731Z,19.26
2023-05-08T11:38:27.761Z,18.69
2023-05-08T11:40:58.300Z,18.49
2023-05-08T11:43:51.511Z,18.11
2023-05-08T11:46:22.391Z,18.11
2023-05-08T11:48:50.698Z,18.17
2023-05-08T11:51:20.815Z,17.44
2023-05-08T11:53:49.587Z,17.49
2023-05-08T11:56:17.858Z,17.53
2023-05-08T11:58:45.968Z,17.82
2023-05-08T12:01:21.022Z,17.86
2023-05-08T12:03:49.168Z,17.98
2023-05-08T12:06:23.969Z,17.97
2023-05-08T12:08:52.102Z,18.70
2023-05-08T12:11:25.289Z,18.89
2023-05-08T12:13:54.255Z,18.67
2023-05-08T12:16:24.315Z,18.99
2023-05-08T12:18:53.641Z,18.84
2023-05-08T12:21:23.122Z,17.82
2023-05-08T12:23:51.215Z,18.41
2023-05-08T12:26:19.291Z,17.59
2023-05-08T12:28:48.414Z,17.32
2023-05-08T12:31:16.701Z,17.68
2023-05-08T12:33:45.265Z,18.11
2023-05-08T12:36:18.133Z,18.54
2023-05-08T12:38:48.684Z,18.95
2023-05-08T12:41:16.622Z,18.22
2023-05-08T12:43:49.051Z,17.62
2023-05-08T12:46:17.964Z,17.99
2023-05-08T12:48:45.912Z,18.37
2023-05-08T12:51:13.823Z,18.56
2023-05-08T12:53:41.835Z,19.11
2023-05-08T12:56:11.214Z,19.28
2023-05-08T12:58:39.525Z,19.15
2023-05-08T13:01:10.287Z,19.25
2023-05-08T13:03:39.096Z,18.74
2023-05-08T13:06:07.862Z,18.90
2023-05-08T13:08:37.281Z,18.61
2023-05-08T13:11:06.743Z,18.22
2023-05-08T13:13:38.920Z,18.43
2023-05-08T13:16:08.510Z,18.28
2023-05-08T13:18:37.259Z,18.07
2023-05-08T13:21:05.425Z,18.70
2023-05-08T13:23:33.450Z,18.81
2023-05-08T13:26:01.530Z,19.28
2023-05-08T13:28:29.547Z,19.34
2023-05-08T13:30:59.266Z,19.45
2023-05-08T13:33:27.484Z,19.50
2023-05-08T13:35:56.300Z,18.51
2023-05-08T13:38:26.241Z,18.77
2023-05-08T13:40:54.230Z,18.41
2023-05-08T13:43:22.236Z,18.97
2023-05-08T13:45:50.303Z,19.29
2023-05-08T13:48:19.654Z,19.50
2023-05-08T13:50:47.685Z,19.16
2023-05-08T13:53:15.797Z,18.93
2023-05-08T13:55:43.868Z,19.19
2023-05-08T13:58:12.057Z,19.66
2023-05-08T14:00:40.192Z,19.53
2023-05-08T14:03:08.452Z,18.99
2023-05-08T14:05:37.915Z,18.98
2023-05-08T14:08:06.214Z,18.41
2023-05-08T14:10:34.185Z,18.89
2023-05-08T14:13:02.303Z,18.79
2023-05-08T14:15:36.932Z,18.96
2023-05-08T14:18:06.053Z,18.25
2023-05-08T14:20:34.269Z,17.99
2023-05-08T14:23:03.558Z,18.20
2023-05-08T14:25:31.805Z,18.30
2023-05-08T14:27:59.931Z,18.44
2023-05-08T14:30:28.039Z,18.59
2023-05-08T14:32:56.146Z,18.77
2023-05-08T14:35:24.209Z,18.60
2023-05-08T14:37:52.085Z,18.42
2023-05-08T14:40:23.324Z,18.55
2023-05-08T14:42:52.543Z,18.69
2023-05-08T14:45:21.368Z,18.52
2023-05-08T14:47:49.641Z,18.68
2023-05-08T14:50:18.072Z,18.70
2023-05-08T14:52:45.989Z,18.49
2023-05-08T14:55:20.794Z,18.41
2023-05-08T14:57:52.041Z,18.13
2023-05-08T15:00:21.408Z,18.45
2023-05-08T15:02:49.543Z,18.41
2023-05-08T15:05:20.006Z,17.60
2023-05-08T15:07:50.173Z,17.46
2023-05-08T15:10:18.332Z,18.10
2023-05-08T15:12:46.284Z,17.89
2023-05-08T15:15:16.710Z,18.21
2023-05-08T15:17:44.825Z,18.15
2023-05-08T15:20:13.045Z,17.87
2023-05-08T15:22:41.210Z,17.86
2023-05-08T15:25:09.461Z,18.09
2023-05-08T15:27:37.444Z,18.04
2023-05-08T15:30:06.324Z,18.13
2023-05-08T15:32:36.154Z,18.49
2023-05-08T15:35:04.687Z,18.57
2023-05-08T15:37:32.876Z,18.58
2023-05-08T15:40:00.906Z,18.95
2023-05-08T15:42:28.906Z,18.78
2023-05-08T15:44:57.943Z,18.41
2023-05-08T15:47:27.293Z,18.19
2023-05-08T15:49:56.635Z,17.92
2023-05-08T15:52:24.672Z,18.33
2023-05-08T15:54:52.681Z,18.17
2023-05-08T15:57:20.729Z,18.83
2023-05-08T15:59:48.807Z,18.83
2023-05-08T16:02:17.020Z,19.12
2023-05-08T16:04:44.983Z,18.84
2023-05-08T16:07:14.494Z,18.92
2023-05-08T16:09:43.115Z,19.03
2023-05-08T16:12:11.053Z,18.76
2023-05-08T16:14:39.147Z,18.63
2023-05-08T16:17:08.589Z,18.42
2023-05-08T16:19:39.437Z,18.72
2023-05-08T16:22:07.483Z,18.88
2023-05-08T16:24:36.840Z,19.26
2023-05-08T16:27:04.848Z,19.77
2023-05-08T16:29:33.053Z,19.16
2023-05-08T16:32:01.009Z,18.82
2023-05-08T16:34:29.109Z,19.70
2023-05-08T16:36:58.552Z,20.05
2023-05-08T16:39:26.636Z,20.01
2023-05-08T16:41:56.016Z,19.50
2023-05-08T16:44:24.250Z,19.65
2023-05-08T16:46:52.241Z,19.28
2023-05-08T16:49:20.207Z,19.08
2023-05-08T16:51:48.456Z,18.63
2023-05-08T16:54:16.485Z,19.15
2023-05-08T16:56:44.486Z,19.00
2023-05-08T16:59:14.013Z,18.81
2023-05-08T17:01:42.134Z,18.94
2023-05-08T17:04:10.167Z,18.69
2023-05-08T17:06:40.735Z,17.08
2023-05-08T17:09:08.875Z,17.50
2023-05-08T17:11:40.472Z,16.98
2023-05-08T17:14:08.534Z,16.90
2023-05-08T17:16:38.671Z,17.31
2023-05-08T17:19:06.670Z,16.79
2023-05-08T17:21:34.760Z,16.93
2023-05-08T17:24:02.962Z,17.39
2023-05-08T17:26:33.711Z,17.90
2023-05-08T17:29:01.896Z,17.39
2023-05-08T17:31:29.904Z,17.65
2023-05-08T17:33:59.324Z,17.50
2023-05-08T17:36:27.447Z,17.02
2023-05-08T17:38:59.689Z,17.32
2023-05-08T17:41:27.604Z,16.92
2023-05-08T17:43:55.830Z,16.40
2023-05-08T17:46:23.895Z,15.17
2023-05-08T17:48:51.857Z,14.61
2023-05-08T17:51:21.260Z,14.14
2023-05-08T17:53:49.814Z,13.76
2023-05-08T17:56:20.550Z,13.27
2023-05-08T17:58:48.698Z,13.21
2023-05-08T18:01:18.086Z,13.14
2023-05-08T18:03:46.201Z,12.99
2023-05-08T18:06:16.250Z,12.68
2023-05-08T18:08:47.585Z,12.45
2023-05-08T18:11:19.565Z,12.29
2023-05-08T18:13:47.841Z,12.05
2023-05-08T18:16:17.775Z,11.79
2023-05-08T18:18:46.036Z,11.91
2023-05-08T18:21:14.301Z,11.77
2023-05-08T18:23:42.219Z,11.70
2023-05-08T18:26:14.613Z,11.47
2023-05-08T18:28:42.712Z,11.28
2023-05-08T18:31:16.376Z,11.43
2023-05-08T18:33:44.494Z,10.89
2023-05-08T18:36:12.520Z,10.91
2023-05-08T18:38:41.772Z,10.60
2023-05-08T18:41:11.173Z,10.71
2023-05-08T18:43:39.198Z,10.59
2023-05-08T18:46:12.472Z,10.52
2023-05-08T18:48:40.649Z,10.45
2023-05-08T18:51:08.641Z,10.17
2023-05-08T18:53:38.637Z,10.12
2023-05-08T18:56:07.586Z,10.18
2023-05-08T18:58:37.152Z,10.05
2023-05-08T19:01:06.250Z,10.13
2023-05-08T19:03:34.274Z,10.05
2023-05-08T19:06:02.199Z,9.78
2023-05-08T19:08:30.651Z,9.85
2023-05-08T19:10:58.487Z,9.66
2023-05-08T19:13:26.892Z,9.62
2023-05-08T19:15:56.453Z,9.60
2023-05-08T19:18:24.354Z,9.30
2023-05-08T19:20:52.248Z,9.43
2023-05-08T19:23:20.378Z,9.24
2023-05-08T19:25:48.390Z,9.28
2023-05-08T19:28:16.341Z,9.24
2023-05-08T19:30:44.339Z,9.14
2023-05-08T19:33:13.793Z,8.78
2023-05-08T19:35:41.709Z,9.02
2023-05-08T19:38:09.956Z,9.07
2023-05-08T19:40:52.005Z,8.87
2023-05-08T19:43:23.433Z,8.95
2023-05-08T19:45:51.588Z,8.63
2023-05-08T19:48:20.901Z,8.40
2023-05-08T19:50:49.140Z,8.31
2023-05-08T19:53:17.423Z,8.39
2023-05-08T19:55:45.455Z,8.04
2023-05-08T19:58:13.492Z,8.00
2023-05-08T20:00:41.559Z,7.85
2023-05-08T20:03:09.710Z,8.04
2023-05-08T20:05:39.443Z,7.84
2023-05-08T20:08:07.574Z,7.96
2023-05-08T20:10:35.678Z,8.21
2023-05-08T20:13:03.751Z,8.03
2023-05-08T20:15:31.691Z,7.97
2023-05-08T20:18:00.247Z,7.68
2023-05-08T20:20:29.888Z,7.49
2023-05-08T20:22:59.265Z,7.52
2023-05-08T20:25:27.714Z,7.14
2023-05-08T20:27:55.932Z,7.43
2023-05-08T20:30:24.040Z,7.27
2023-05-08T20:32:52.136Z,7.10
2023-05-08T20:35:20.363Z,7.20
2023-05-08T20:37:49.369Z,7.41
2023-05-08T20:40:19.488Z,7.60
2023-05-08T20:42:47.583Z,7.60
2023-05-08T20:45:15.638Z,7.58
2023-05-08T20:47:43.727Z,7.41
2023-05-08T20:50:12.279Z,7.27
2023-05-08T20:52:42.405Z,7.26
2023-05-08T20:55:11.400Z,7.14
2023-05-08T20:57:41.310Z,7.09
2023-05-08T21:00:10.330Z,6.71
2023-05-08T21:02:40.170Z,6.62
2023-05-08T21:05:09.289Z,6.49
2023-05-08T21:07:37.310Z,5.92
2023-05-08T21:10:06.008Z,6.01
2023-05-08T21:12:34.217Z,5.83
2023-05-08T21:15:03.972Z,5.74
2023-05-08T21:17:31.948Z,6.03
2023-05-08T21:20:00.167Z,5.74
2023-05-08T21:22:28.095Z,5.69
2023-05-08T21:24:56.024Z,5.43
2023-05-08T21:27:25.988Z,5.21
2023-05-08T21:29:53.965Z,5.06
2023-05-08T21:32:23.331Z,4.95
2023-05-08T21:34:51.417Z,4.72
2023-05-08T21:37:19.324Z,4.93
2023-05-08T21:39:47.290Z,4.72
2023-05-08T21:42:15.848Z,4.56
2023-05-08T21:44:44.018Z,4.74
2023-05-08T21:47:11.923Z,4.51
2023-05-08T21:49:41.636Z,4.38
2023-05-08T21:52:09.641Z,4.30
2023-05-08T21:54:39.122Z,4.22
2023-05-08T21:57:07.690Z,4.34
2023-05-08T21:59:35.971Z,4.46
2023-05-08T22:02:04.167Z,4.50
2023-05-08T22:04:32.473Z,4.18
2023-05-08T22:07:01.832Z,4.16
2023-05-08T22:09:29.780Z,3.92
2023-05-08T22:11:57.881Z,3.85
2023-05-08T22:14:26.052Z,3.86
2023-05-08T22:16:54.323Z,3.79
2023-05-08T22:19:22.512Z,3.75
2023-05-08T22:21:50.399Z,3.69
2023-05-08T22:24:20.208Z,3.65
2023-05-08T22:26:48.442Z,3.63
2023-05-08T22:29:16.967Z,3.67
2023-05-08T22:31:45.463Z,3.66
2023-05-08T22:34:13.563Z,3.65
2023-05-08T22:36:41.515Z,3.91
2023-05-08T22:39:10.268Z,3.65
2023-05-08T22:41:40.000Z,3.56
2023-05-08T22:44:08.221Z,4.13
2023-05-08T22:46:37.097Z,3.97
2023-05-08T22:49:05.365Z,4.14
2023-05-08T22:51:33.418Z,3.95
2023-05-08T22:54:01.504Z,3.76
2023-05-08T22:56:29.637Z,3.55
2023-05-08T22:58:59.021Z,3.56
2023-05-08T23:01:27.276Z,3.46
2023-05-08T23:03:56.697Z,3.48
2023-05-08T23:06:25.172Z,3.43
2023-05-08T23:08:53.149Z,3.37
2023-05-08T23:11:21.693Z,3.30
2023-05-08T23:13:49.623Z,3.15
2023-05-08T23:16:19.017Z,3.37
2023-05-08T23:18:47.230Z,3.32
2023-05-08T23:21:15.102Z,3.32
2023-05-08T23:23:43.128Z,3.55
2023-05-08T23:26:11.244Z,3.52
2023-05-08T23:28:39.133Z,3.55
2023-05-08T23:31:07.140Z,3.31
2023-05-08T23:33:40.269Z,3.32
2023-05-08T23:36:08.847Z,3.29
2023-05-08T23:38:36.792Z,3.35
2023-05-08T23:41:07.238Z,3.31
2023-05-08T23:43:35.139Z,3.30
2023-05-08T23:46:03.383Z,3.21
2023-05-08T23:48:31.730Z,3.10
2023-05-08T23:51:01.137Z,2.92
2023-05-08T23:53:29.117Z,2.87
2023-05-08T23:55:57.968Z,2.50
2023-05-08T23:58:29.036Z,2.60
